Time;durP1;ratioP1;P1;durP2;ratioP2;P2;SDS_P1;SDS_P2;PMS_P1;PMS_P2;Temp;Humidity;BMP_temperature;BMP_pressure;BME280_temperature;BME280_humidity;BME280_pressure;Samples;Min_cycle;Max_cycle;Signal;HPM_P1;HPM_P2
2021/03/22 00:00:43;;;;;;;58.80;28.27;;;;;;;-0.92;69.75;99193.23;1695997;84;21175;-70
2021/03/22 00:03:12;;;;;;;63.85;28.10;;;;;;;-0.94;69.34;99198.87;1680217;82;23813;-63
2021/03/22 00:05:39;;;;;;;68.33;29.87;;;;;;;-0.97;68.99;99191.11;1692319;83;21144;-63
2021/03/22 00:08:07;;;;;;;69.05;28.62;;;;;;;-0.96;69.16;99192.41;1702501;83;21190;-64
2021/03/22 00:10:37;;;;;;;60.10;26.17;;;;;;;-0.96;69.02;99187.67;1715724;83;21657;-63
2021/03/22 00:13:05;;;;;;;58.02;29.15;;;;;;;-0.98;68.83;99183.80;1700704;83;21199;-62
2021/03/22 00:15:35;;;;;;;56.25;25.68;;;;;;;-0.98;68.90;99182.94;1700639;83;21198;-63
2021/03/22 00:18:07;;;;;;;54.30;25.02;;;;;;;-0.99;68.93;99174.75;1709821;81;21246;-69
2021/03/22 00:20:37;;;;;;;56.88;25.75;;;;;;;-1.00;69.14;99170.46;1718349;82;21647;-70
2021/03/22 00:23:06;;;;;;;63.80;27.22;;;;;;;-1.00;69.31;99167.88;1736958;82;21134;-69
2021/03/22 00:25:35;;;;;;;56.88;26.00;;;;;;;-1.01;69.60;99166.14;1729286;82;21158;-68
2021/03/22 00:28:05;;;;;;;59.50;26.97;;;;;;;-1.01;69.72;99163.55;1749639;81;21775;-70
2021/03/22 00:30:37;;;;;;;55.23;25.05;;;;;;;-1.01;69.76;99156.69;1755174;81;21184;-68
2021/03/22 00:33:06;;;;;;;65.12;28.40;;;;;;;-1.01;69.83;99157.09;1703345;79;27779;-62
2021/03/22 00:35:36;;;;;;;50.35;24.92;;;;;;;-0.99;69.49;99151.48;1612846;87;21234;-63
2021/03/22 00:38:06;;;;;;;56.77;23.50;;;;;;;-0.97;69.98;99151.05;1616545;87;21235;-63
2021/03/22 00:40:38;;;;;;;54.55;25.52;;;;;;;-0.96;69.46;99151.49;1656106;85;21258;-63
2021/03/22 00:43:05;;;;;;;51.92;22.55;;;;;;;-0.96;69.20;99145.88;1623401;87;21199;-63
2021/03/22 00:45:34;;;;;;;54.42;24.05;;;;;;;-0.97;68.71;99146.73;1636119;87;21691;-64
2021/03/22 00:48:03;;;;;;;55.35;25.43;;;;;;;-0.94;68.05;99149.76;1668769;81;21620;-71
2021/03/22 00:50:36;;;;;;;48.63;23.47;;;;;;;-0.92;68.09;99151.46;1741408;82;21154;-70
2021/03/22 00:53:07;;;;;;;52.50;23.02;;;;;;;-0.89;68.14;99148.00;1758632;80;21371;-70
2021/03/22 00:55:34;;;;;;;37.85;17.52;;;;;;;-0.86;69.02;99151.40;1757918;81;21209;-71
2021/03/22 00:58:02;;;;;;;49.23;23.05;;;;;;;-0.87;69.22;99144.53;1762143;81;21150;-70
2021/03/22 01:00:44;;;;;;;48.28;22.17;;;;;;;-0.85;69.21;99139.36;1747263;81;21193;-72
2021/03/22 01:03:19;;;;;;;41.18;19.45;;;;;;;-0.82;68.98;99136.74;1757585;79;21149;-62
2021/03/22 01:05:47;;;;;;;41.23;19.67;;;;;;;-0.80;68.92;99138.03;1813065;78;21146;-63
2021/03/22 01:08:16;;;;;;;40.30;19.23;;;;;;;-0.77;68.77;99140.15;1837362;78;21218;-62
2021/03/22 01:10:58;;;;;;;37.60;18.77;;;;;;;-0.77;69.49;99133.69;1829023;78;21657;-62
2021/03/22 01:13:29;;;;;;;34.55;16.73;;;;;;;-0.75;68.94;99130.66;1821625;78;21169;-62
2021/03/22 01:15:59;;;;;;;51.75;22.73;;;;;;;-0.76;68.44;99134.13;1799642;78;21148;-62
2021/03/22 01:18:35;;;;;;;46.77;23.02;;;;;;;-0.78;68.37;99129.39;1813982;78;22285;-62
2021/03/22 01:21:39;;;;;;;39.73;18.75;;;;;;;-0.81;67.90;99135.01;1804293;77;27501;-72
2021/03/22 01:24:08;;;;;;;41.90;19.57;;;;;;;-0.85;67.72;99136.77;1772980;80;21768;-73
2021/03/22 01:26:37;;;;;;;42.73;19.47;;;;;;;-0.91;68.47;99135.52;1797893;78;21196;-72
2021/03/22 01:29:08;;;;;;;45.35;22.48;;;;;;;-0.95;68.94;99136.39;1803161;78;21168;-73
2021/03/22 01:31:36;;;;;;;40.00;19.70;;;;;;;-0.99;69.47;99133.40;1777768;80;21357;-71
2021/03/22 01:34:04;;;;;;;43.73;22.15;;;;;;;-1.00;69.27;99133.84;1802825;78;21190;-71
2021/03/22 01:36:33;;;;;;;45.10;22.55;;;;;;;-1.03;68.87;99135.59;1779017;78;21586;-63
2021/03/22 01:39:10;;;;;;;49.58;23.83;;;;;;;-1.06;69.46;99136.04;1760752;80;21258;-63
2021/03/22 01:42:03;;;;;;;51.58;24.70;;;;;;;-1.02;69.73;99138.59;1782589;79;21666;-63
2021/03/22 01:44:41;;;;;;;43.15;20.57;;;;;;;-1.01;69.67;99140.30;1782547;79;21700;-62
2021/03/22 01:47:22;;;;;;;38.92;19.27;;;;;;;-1.00;69.66;99140.73;1770744;79;21198;-63
2021/03/22 01:50:18;;;;;;;48.87;21.60;;;;;;;-1.01;70.46;99133.42;1772725;80;21169;-65
2021/03/22 01:52:47;;;;;;;55.33;24.77;;;;;;;-0.96;70.50;99138.56;1767401;79;21204;-63
2021/03/22 01:55:15;;;;;;;53.13;26.48;;;;;;;-0.93;71.36;99137.24;1730870;80;21503;-63
2021/03/22 01:57:44;;;;;;;51.15;24.85;;;;;;;-0.88;71.37;99141.94;1789438;79;21266;-63
2021/03/22 02:00:34;;;;;;;47.58;22.98;;;;;;;-0.87;70.20;99138.51;1782998;79;21773;-63
2021/03/22 02:03:14;;;;;;;38.67;19.95;;;;;;;-0.84;70.96;99133.30;1766956;79;21205;-62
2021/03/22 02:05:48;;;;;;;39.20;19.47;;;;;;;-0.79;71.13;99131.54;1789273;79;21151;-63
2021/03/22 02:08:20;;;;;;;41.28;19.87;;;;;;;-0.76;71.17;99125.48;1775853;79;21179;-63
2021/03/22 02:10:48;;;;;;;37.73;19.05;;;;;;;-0.72;71.31;99133.20;1785513;80;22371;-63
2021/03/22 02:13:20;;;;;;;46.23;22.50;;;;;;;-0.68;71.26;99127.16;1769541;80;21182;-63
2021/03/22 02:15:49;;;;;;;54.35;24.02;;;;;;;-0.66;71.08;99128.00;1773037;78;21215;-64
2021/03/22 02:18:33;;;;;;;55.55;26.37;;;;;;;-0.62;71.44;99126.67;1771306;80;21618;-62
2021/03/22 02:21:48;;;;;;;67.12;29.63;;;;;;;-0.57;71.84;99128.81;1779071;79;24609;-63
2021/03/22 02:24:50;;;;;;;49.33;20.82;;;;;;;-0.55;71.36;99123.16;1772425;80;21267;-63
2021/03/22 02:27:50;;;;;;;87.15;34.65;;;;;;;-0.52;70.84;99121.87;1793380;79;21175;-64
2021/03/22 02:31:02;;;;;;;83.85;33.90;;;;;;;-0.50;71.87;99117.55;1756554;79;21642;-64
2021/03/22 02:33:58;;;;;;;99.17;36.88;;;;;;;-0.48;71.07;99119.69;1771779;80;21152;-64
2021/03/22 02:37:09;;;;;;;63.90;26.30;;;;;;;-0.47;70.21;99114.92;1771033;79;21204;-63
2021/03/22 02:39:48;;;;;;;111.28;42.83;;;;;;;-0.46;71.33;99106.27;1799836;79;22294;-63
2021/03/22 02:42:16;;;;;;;65.57;29.65;;;;;;;-0.45;71.39;99111.45;1799503;79;21662;-63
2021/03/22 02:44:43;;;;;;;59.95;28.25;;;;;;;-0.44;71.04;99111.00;1714947;81;21172;-62
2021/03/22 02:47:30;;;;;;;45.95;22.10;;;;;;;-0.44;71.08;99113.18;1796235;79;21672;-64
2021/03/22 02:50:00;;;;;;;55.50;26.30;;;;;;;-0.43;70.83;99114.88;1776934;80;21546;-64
2021/03/22 02:52:58;;;;;;;49.85;23.30;;;;;;;-0.40;71.42;99115.28;1777768;80;21375;-62
2021/03/22 02:55:58;;;;;;;57.33;26.50;;;;;;;-0.37;71.15;99118.27;1799571;79;21231;-62
2021/03/22 02:58:53;;;;;;;61.45;28.67;;;;;;;-0.35;72.14;99108.33;1775130;80;21199;-63
2021/03/22 03:01:38;;;;;;;51.40;22.73;;;;;;;-0.27;71.17;99106.98;1775733;74;23049;-72
2021/03/22 03:04:08;;;;;;;49.53;22.95;;;;;;;-0.31;71.13;99103.55;1727032;82;21172;-72
2021/03/22 03:07:01;;;;;;;52.90;25.83;;;;;;;-0.31;71.00;99095.80;1740901;82;21373;-73
2021/03/22 03:09:33;;;;;;;60.60;26.95;;;;;;;-0.29;71.21;99096.64;1741340;82;21180;-72
2021/03/22 03:12:16;;;;;;;71.15;29.80;;;;;;;-0.27;71.64;99098.78;1743487;81;21193;-72
2021/03/22 03:14:47;;;;;;;70.22;29.48;;;;;;;-0.27;71.95;99094.90;1720902;82;21214;-72
2021/03/22 03:17:15;;;;;;;73.22;31.27;;;;;;;-0.27;71.71;99094.05;1735398;77;21231;-65
2021/03/22 03:19:43;;;;;;;80.42;33.53;;;;;;;-0.27;71.49;99091.02;1718929;82;21365;-63
2021/03/22 03:22:12;;;;;;;64.15;28.95;;;;;;;-0.27;71.50;99092.31;1689078;82;27202;-63
2021/03/22 03:24:40;;;;;;;53.60;23.85;;;;;;;-0.26;71.14;99091.42;1659084;85;21230;-64
2021/03/22 03:27:09;;;;;;;52.33;23.90;;;;;;;-0.28;71.17;99100.93;1660623;85;21652;-64
2021/03/22 03:29:38;;;;;;;47.83;21.85;;;;;;;-0.28;71.34;99095.75;1660467;85;21213;-63
2021/03/22 03:32:09;;;;;;;59.63;25.43;;;;;;;-0.29;71.43;99094.05;1658935;83;21454;-72
2021/03/22 03:34:37;;;;;;;58.38;25.15;;;;;;;-0.30;71.70;99091.06;1660720;85;21178;-71
2021/03/22 03:37:05;;;;;;;53.75;25.15;;;;;;;-0.33;72.04;99088.48;1658743;84;21192;-72
2021/03/22 03:39:33;;;;;;;53.42;25.20;;;;;;;-0.35;72.25;99083.75;1655596;85;21237;-71
2021/03/22 03:42:01;;;;;;;59.85;26.60;;;;;;;-0.37;72.74;99082.06;1655883;86;21237;-71
2021/03/22 03:44:28;;;;;;;55.60;25.35;;;;;;;-0.40;72.80;99077.77;1657866;86;21351;-72
2021/03/22 03:46:56;;;;;;;77.82;32.78;;;;;;;-0.40;72.66;99080.80;1706159;82;21673;-63
2021/03/22 03:49:24;;;;;;;76.65;30.92;;;;;;;-0.43;72.41;99073.94;1728965;82;21174;-63
2021/03/22 03:51:51;;;;;;;75.00;31.35;;;;;;;-0.44;72.04;99076.08;1705435;82;21189;-63
2021/03/22 03:54:20;;;;;;;65.92;30.35;;;;;;;-0.41;72.76;99078.66;1705105;82;21191;-63
2021/03/22 03:56:48;;;;;;;94.37;38.38;;;;;;;-0.40;72.65;99084.24;1711438;82;21381;-63
2021/03/22 03:59:15;;;;;;;90.90;38.98;;;;;;;-0.40;72.48;99079.06;1709150;82;21205;-63
2021/03/22 04:01:44;;;;;;;74.35;32.85;;;;;;;-0.41;72.09;99076.08;1734862;79;21555;-71
2021/03/22 04:04:12;;;;;;;77.87;33.40;;;;;;;-0.42;71.91;99076.92;1749612;81;21698;-71
2021/03/22 04:06:40;;;;;;;56.58;25.48;;;;;;;-0.44;71.59;99073.50;1753104;81;21150;-71
2021/03/22 04:09:12;;;;;;;79.55;34.45;;;;;;;-0.44;71.42;99068.32;1738774;81;21737;-73
2021/03/22 04:11:41;;;;;;;;;;;;;;;-0.44;71.98;99070.91;1754271;81;21230;-73
2021/03/22 04:14:15;;;;;;;76.87;32.55;;;;;;;-0.45;71.81;99064.03;1744873;81;20271;-73
2021/03/22 04:16:43;;;;;;;69.50;28.65;;;;;;;-0.46;72.27;99058.42;1718923;82;21583;-62
2021/03/22 04:19:11;;;;;;;75.87;31.90;;;;;;;-0.45;72.41;99064.03;1763878;81;21188;-62
2021/03/22 04:21:39;;;;;;;82.65;35.38;;;;;;;-0.45;73.00;99058.86;1768161;79;26822;-63
2021/03/22 04:24:08;;;;;;;72.22;31.75;;;;;;;-0.41;72.68;99064.44;1795003;79;21267;-61
2021/03/22 04:26:36;;;;;;;77.55;33.65;;;;;;;-0.40;72.85;99063.55;1785318;80;21194;-63
2021/03/22 04:29:04;;;;;;;61.65;28.70;;;;;;;-0.40;72.36;99058.38;1766530;80;21180;-61
2021/03/22 04:31:32;;;;;;;70.65;32.28;;;;;;;-0.38;72.26;99063.09;1781499;77;21181;-72
2021/03/22 04:34:01;;;;;;;88.30;36.60;;;;;;;-0.37;72.36;99056.19;1748775;80;21808;-73
2021/03/22 04:36:32;;;;;;;69.92;32.10;;;;;;;-0.35;72.64;99052.71;1755487;81;21183;-73
2021/03/22 04:39:00;;;;;;;74.72;37.03;;;;;;;-0.31;72.19;99061.31;1755550;81;21183;-74
2021/03/22 04:41:27;;;;;;;78.15;37.48;;;;;;;-0.29;72.09;99060.42;1755508;81;21655;-73
2021/03/22 04:43:55;;;;;;;71.57;31.75;;;;;;;-0.25;72.43;99056.09;1749226;81;21144;-73
2021/03/22 04:46:23;;;;;;;70.90;33.30;;;;;;;-0.21;71.99;99053.86;1771203;78;21371;-63
2021/03/22 04:48:53;;;;;;;76.40;34.43;;;;;;;-0.17;72.08;99062.46;1787821;78;21224;-61
2021/03/22 04:51:23;;;;;;;83.07;38.48;;;;;;;-0.12;71.95;99067.99;1808379;78;21203;-63
2021/03/22 04:53:50;;;;;;;67.05;32.35;;;;;;;-0.08;71.62;99064.95;1805367;78;21187;-63
2021/03/22 04:56:21;;;;;;;104.15;44.93;;;;;;;-0.03;71.62;99064.45;1820044;78;21136;-62
2021/03/22 04:58:48;;;;;;;82.88;36.65;;;;;;;-0.06;72.06;99056.73;1822330;78;21427;-63
2021/03/22 05:01:16;;;;;;;93.05;41.98;;;;;;;0.04;72.59;99062.66;1801039;78;21216;-73
2021/03/22 05:03:45;;;;;;;84.32;39.58;;;;;;;0.05;71.75;99058.77;1735257;81;21179;-72
2021/03/22 05:06:13;;;;;;;88.27;39.03;;;;;;;0.07;72.02;99062.20;1742526;81;21614;-73
2021/03/22 05:08:40;;;;;;;84.52;35.85;;;;;;;0.12;72.03;99066.88;1743161;81;21211;-72
2021/03/22 05:11:08;;;;;;;85.97;32.75;;;;;;;0.17;71.55;99069.41;1738514;81;22118;-71
2021/03/22 05:13:37;;;;;;;65.42;30.65;;;;;;;0.22;71.37;99074.53;1735286;81;21200;-73
2021/03/22 05:16:05;;;;;;;64.07;29.20;;;;;;;0.28;70.38;99071.88;1763633;78;21664;-63
2021/03/22 05:18:40;;;;;;;59.48;28.07;;;;;;;0.34;70.70;99067.91;1784246;80;21136;-63
2021/03/22 05:21:08;;;;;;;64.03;29.23;;;;;;;0.40;69.88;99073.02;1810793;77;21154;-62
2021/03/22 05:23:39;;;;;;;58.15;27.22;;;;;;;0.43;69.32;99075.55;1764085;78;30494;-64
2021/03/22 05:26:08;;;;;;;51.37;25.57;;;;;;;0.48;69.74;99073.75;1746038;80;21149;-64
2021/03/22 05:28:40;;;;;;;51.60;25.23;;;;;;;0.48;68.91;99077.64;1748226;80;21161;-64
2021/03/22 05:31:06;;;;;;;62.48;27.82;;;;;;;0.48;68.68;99073.75;1771172;78;21299;-74
2021/03/22 05:33:34;;;;;;;53.65;26.73;;;;;;;0.48;69.10;99077.64;1760614;80;21197;-73
2021/03/22 05:36:02;;;;;;;49.00;25.08;;;;;;;0.51;69.05;99078.91;1702129;83;22412;-72
2021/03/22 05:38:32;;;;;;;53.20;26.43;;;;;;;0.56;69.99;99081.00;1726611;82;21200;-72
2021/03/22 05:41:05;;;;;;;55.38;25.80;;;;;;;0.59;69.72;99084.83;1729322;82;21165;-74
2021/03/22 05:43:44;;;;;;;50.60;25.00;;;;;;;0.63;68.34;99082.62;1753688;81;21172;-74
2021/03/22 05:46:27;;;;;;;51.53;24.18;;;;;;;0.66;68.14;99083.47;1716729;78;21224;-65
2021/03/22 05:49:19;;;;;;;61.08;26.02;;;;;;;0.73;67.19;99082.50;1717808;82;21365;-64
2021/03/22 05:55:08;;;;;;;49.03;25.20;;;;;;;0.93;67.42;99078.34;1870610;76;22632;-64
2021/03/22 05:57:49;;;;;;;70.32;28.00;;;;;;;0.95;67.31;99079.17;1833478;77;21172;-68
2021/03/22 06:01:03;;;;;;;58.38;25.48;;;;;;;1.03;66.78;99074.27;1833073;77;21195;-69
2021/03/22 06:03:47;;;;;;;55.67;25.88;;;;;;;1.14;66.47;99068.08;1682812;84;21637;-70
2021/03/22 06:06:43;;;;;;;50.38;24.30;;;;;;;1.24;66.93;99067.91;1711771;83;21746;-69
2021/03/22 06:09:45;;;;;;;55.60;26.90;;;;;;;1.37;68.05;99073.73;1703722;82;21685;-69
2021/03/22 06:12:36;;;;;;;60.58;29.02;;;;;;;1.50;64.75;99070.51;1675572;84;21217;-71
2021/03/22 06:15:28;;;;;;;56.70;27.07;;;;;;;1.59;64.84;99073.39;1705732;83;21394;-70
2021/03/22 06:18:20;;;;;;;59.58;26.48;;;;;;;1.65;64.61;99073.27;1744394;78;21655;-70
2021/03/22 06:20:51;;;;;;;55.80;26.33;;;;;;;1.75;65.47;99069.63;1720924;82;21547;-68
2021/03/22 06:23:35;;;;;;;52.62;26.02;;;;;;;1.93;64.42;99066.27;1668091;84;25514;-67
2021/03/22 06:26:20;;;;;;;39.15;21.25;;;;;;;2.14;62.33;99069.77;1676971;85;21172;-67
2021/03/22 06:28:55;;;;;;;39.58;21.30;;;;;;;2.31;59.26;99069.42;1670780;85;21352;-68
2021/03/22 06:31:23;;;;;;;43.20;21.52;;;;;;;2.54;60.43;99071.53;1670476;82;21602;-72
2021/03/22 06:34:05;;;;;;;38.45;20.10;;;;;;;2.88;59.70;99074.70;1768874;80;21185;-70
2021/03/22 06:36:35;;;;;;;33.75;18.15;;;;;;;3.25;58.85;99073.39;1731505;82;21203;-73
2021/03/22 06:39:07;;;;;;;37.20;19.25;;;;;;;3.71;56.49;99076.59;1756889;80;21643;-72
2021/03/22 06:41:51;;;;;;;39.65;19.70;;;;;;;3.97;56.50;99081.11;1728239;82;21201;-70
2021/03/22 06:44:36;;;;;;;33.23;17.67;;;;;;;4.22;55.39;99067.41;1730845;82;21204;-71
2021/03/22 06:47:15;;;;;;;29.82;17.45;;;;;;;4.45;53.81;99079.79;1747737;80;21756;-68
2021/03/22 06:49:47;;;;;;;30.20;17.27;;;;;;;4.59;53.54;99076.33;1755461;80;21177;-68
2021/03/22 06:52:21;;;;;;;35.40;18.70;;;;;;;4.65;52.92;99077.45;1739454;80;21555;-67
2021/03/22 06:54:56;;;;;;;31.52;18.07;;;;;;;4.61;53.38;99073.23;1753261;80;21214;-67
2021/03/22 06:57:27;;;;;;;34.48;17.77;;;;;;;4.63;53.47;99072.73;1758695;79;21190;-68
2021/03/22 07:00:15;;;;;;;30.72;18.35;;;;;;;4.77;53.93;99067.10;1787735;79;21153;-69
2021/03/22 07:02:52;;;;;;;27.00;15.90;;;;;;;4.83;54.01;99071.69;1727617;79;21240;-69
2021/03/22 07:05:31;;;;;;;37.60;18.15;;;;;;;4.96;54.54;99075.21;1693566;83;21178;-71
2021/03/22 07:08:07;;;;;;;28.80;15.72;;;;;;;5.06;54.57;99077.92;1687353;84;22147;-71
2021/03/22 07:10:55;;;;;;;31.02;17.25;;;;;;;5.13;54.40;99084.69;1697505;81;21230;-72
2021/03/22 07:13:31;;;;;;;30.85;16.42;;;;;;;5.25;54.63;99084.28;1736609;81;21202;-71
2021/03/22 07:16:21;;;;;;;30.15;17.00;;;;;;;5.35;55.35;99089.21;1700953;82;21190;-72
2021/03/22 07:19:18;;;;;;;31.23;16.73;;;;;;;5.38;55.38;99086.48;1675457;85;21200;-68
2021/03/22 07:21:55;;;;;;;35.40;18.15;;;;;;;5.30;56.91;99094.58;1694218;82;30403;-68
2021/03/22 07:24:50;;;;;;;27.98;16.57;;;;;;;5.32;54.74;99088.86;1690248;83;21193;-68
2021/03/22 07:27:30;;;;;;;25.10;15.70;;;;;;;5.29;55.37;99093.31;1689041;84;21934;-68
2021/03/22 07:30:26;;;;;;;29.77;16.48;;;;;;;5.35;56.68;99093.97;1683244;84;21192;-68
2021/03/22 07:33:31;;;;;;;32.17;17.20;;;;;;;5.42;56.04;99094.17;1756338;78;21217;-71
2021/03/22 07:36:24;;;;;;;32.60;17.37;;;;;;;5.45;55.95;99096.70;1768591;79;21162;-71
2021/03/22 07:39:12;;;;;;;;;;;;;;;5.46;56.02;99089.72;1762559;80;21209;-70
2021/03/22 07:42:09;;;;;;;27.62;16.07;;;;;;;5.74;57.03;99097.94;1762810;80;20234;-72
2021/03/22 07:44:57;;;;;;;24.82;16.15;;;;;;;5.85;57.83;99103.66;1757897;80;21202;-70
2021/03/22 07:47:51;;;;;;;32.13;18.80;;;;;;;5.73;58.15;99101.44;1741671;78;21209;-68
2021/03/22 07:50:43;;;;;;;29.40;17.23;;;;;;;5.70;59.80;99098.48;1734179;81;21285;-68
2021/03/22 07:53:22;;;;;;;28.55;16.55;;;;;;;5.84;58.56;99098.02;1737762;81;21194;-68
2021/03/22 07:56:09;;;;;;;27.52;16.57;;;;;;;5.96;58.97;99100.27;1727143;81;21217;-68
2021/03/22 07:58:51;;;;;;;30.57;18.20;;;;;;;6.10;60.19;99102.39;1709633;82;21185;-68
2021/03/22 08:01:35;;;;;;;30.40;17.98;;;;;;;6.29;59.20;99105.20;1681503;81;21242;-67
2021/03/22 08:04:17;;;;;;;26.12;16.20;;;;;;;6.34;58.20;99100.65;1734483;82;21274;-72
2021/03/22 08:06:56;;;;;;;33.02;18.87;;;;;;;6.27;58.32;99101.78;1739722;82;21106;-72
2021/03/22 08:09:36;;;;;;;25.13;14.80;;;;;;;6.13;57.03;99100.13;1748064;81;21185;-72
2021/03/22 08:12:28;;;;;;;24.55;16.40;;;;;;;6.00;59.51;99105.76;1759511;81;21177;-71
2021/03/22 08:15:24;;;;;;;33.08;19.77;;;;;;;5.92;61.24;99109.07;1765046;81;21182;-71
2021/03/22 08:18:14;;;;;;;33.38;19.45;;;;;;;5.76;61.81;99100.90;1730356;78;21339;-68
2021/03/22 08:21:09;;;;;;;30.68;18.75;;;;;;;5.56;61.89;99106.78;1720246;81;26162;-70
2021/03/22 08:23:52;;;;;;;32.45;18.82;;;;;;;5.38;62.37;99100.85;1720420;82;21233;-68
2021/03/22 08:26:28;;;;;;;28.45;17.30;;;;;;;5.15;63.48;99102.42;1723331;83;21228;-68
2021/03/22 08:29:25;;;;;;;31.25;18.90;;;;;;;5.01;63.96;99103.31;1723642;82;21123;-68
2021/03/22 08:32:19;;;;;;;31.68;18.57;;;;;;;4.86;64.31;99103.80;1722925;80;21343;-72
2021/03/22 08:35:09;;;;;;;29.12;19.82;;;;;;;4.68;64.63;99107.34;1695779;83;21150;-74
2021/03/22 08:37:59;;;;;;;35.03;21.12;;;;;;;4.53;64.46;99110.39;1710014;83;21776;-73
2021/03/22 08:40:55;;;;;;;28.42;18.23;;;;;;;4.39;65.53;99107.75;1698537;83;21199;-71
2021/03/22 08:43:48;;;;;;;35.60;21.40;;;;;;;4.23;66.77;99112.11;1700745;83;21655;-70
2021/03/22 08:46:44;;;;;;;33.75;20.95;;;;;;;4.08;68.29;99116.00;1689003;83;21292;-71
2021/03/22 08:49:39;;;;;;;38.70;18.20;;;;;;;3.96;67.80;99114.12;1659604;85;21189;-67
2021/03/22 08:52:07;;;;;;;31.48;19.52;;;;;;;3.84;68.40;99113.58;1656974;85;21564;-68
2021/03/22 08:54:36;;;;;;;38.63;22.17;;;;;;;3.73;70.12;99116.47;1651642;85;21199;-67
2021/03/22 08:57:18;;;;;;;27.62;17.75;;;;;;;3.62;69.83;99113.28;1656559;85;21213;-68
2021/03/22 09:00:33;;;;;;;34.07;21.03;;;;;;;3.57;70.38;99118.15;1832002;76;23722;-68
2021/03/22 09:03:16;;;;;;;32.08;19.07;;;;;;;3.50;70.61;99121.80;1785808;76;21567;-73
2021/03/22 09:06:17;;;;;;;34.45;19.05;;;;;;;3.53;71.63;99121.72;1711878;82;21250;-71
2021/03/22 09:08:57;;;;;;;35.17;22.10;;;;;;;3.62;71.90;99123.70;1713617;81;21151;-73
2021/03/22 09:11:41;;;;;;;41.17;23.97;;;;;;;3.72;71.25;99122.56;1708379;82;21861;-74
2021/03/22 09:14:18;;;;;;;41.95;24.85;;;;;;;3.66;70.85;99130.09;1690317;83;21164;-73
2021/03/22 09:16:49;;;;;;;42.27;23.77;;;;;;;3.54;70.71;99130.38;1712302;78;21173;-69
2021/03/22 09:19:44;;;;;;;40.00;24.98;;;;;;;3.50;70.85;99117.89;1734425;81;21217;-68
2021/03/22 09:22:19;;;;;;;38.05;22.15;;;;;;;3.46;70.64;99116.25;1726975;80;23114;-69
2021/03/22 09:24:48;;;;;;;37.08;22.65;;;;;;;3.46;72.14;99116.25;1714858;81;21677;-68
2021/03/22 09:27:22;;;;;;;40.43;23.12;;;;;;;3.50;73.10;99119.20;1703818;82;21391;-69
2021/03/22 09:30:09;;;;;;;36.95;22.62;;;;;;;3.60;73.06;99115.91;1692227;83;21215;-69
2021/03/22 09:32:43;;;;;;;36.80;22.02;;;;;;;3.65;70.21;99120.55;1702534;79;21170;-71
2021/03/22 09:35:20;;;;;;;40.43;23.75;;;;;;;3.58;70.06;99118.55;1768219;80;21210;-69
2021/03/22 09:38:03;;;;;;;38.90;23.20;;;;;;;3.69;70.54;99113.08;1802982;78;21253;-70
2021/03/22 09:40:36;;;;;;;36.20;22.05;;;;;;;4.03;71.89;99119.19;1825383;78;21178;-71
2021/03/22 09:43:12;;;;;;;32.35;20.20;;;;;;;4.32;68.86;99114.00;1829605;78;21693;-70
2021/03/22 09:45:57;;;;;;;38.00;21.75;;;;;;;4.41;68.20;99109.84;1820130;78;21437;-71
2021/03/22 09:48:34;;;;;;;37.67;21.80;;;;;;;4.32;68.40;99112.70;1758582;76;21200;-69
2021/03/22 09:51:08;;;;;;;37.15;21.97;;;;;;;4.36;66.79;99109.58;1729043;82;21186;-71
2021/03/22 09:54:04;;;;;;;35.70;20.02;;;;;;;4.61;66.40;99111.04;1661196;84;21232;-71
2021/03/22 09:56:44;;;;;;;33.70;20.60;;;;;;;4.78;61.87;99110.08;1701380;83;21149;-70
2021/03/22 09:59:38;;;;;;;34.98;21.62;;;;;;;4.71;60.98;99115.53;1663506;84;21226;-70
2021/03/22 10:02:31;;;;;;;33.50;21.25;;;;;;;4.62;61.08;99115.34;1660270;82;21203;-68
2021/03/22 10:05:25;;;;;;;34.70;20.60;;;;;;;4.55;61.79;99119.02;1681934;84;21169;-69
2021/03/22 10:08:23;;;;;;;37.60;21.42;;;;;;;4.47;61.93;99121.86;1664316;84;21221;-70
2021/03/22 10:10:56;;;;;;;33.60;21.42;;;;;;;4.45;62.82;99113.69;1649318;85;21270;-68
2021/03/22 10:13:43;;;;;;;37.90;21.73;;;;;;;4.43;63.65;99120.69;1653058;85;22131;-68
2021/03/22 10:16:19;;;;;;;39.70;21.40;;;;;;;4.38;63.97;99117.75;1668363;83;21374;-69
2021/03/22 10:19:15;;;;;;;36.03;21.52;;;;;;;4.31;64.86;99127.95;1714625;81;21203;-70
2021/03/22 10:22:05;;;;;;;34.95;19.92;;;;;;;4.26;64.03;99131.59;1756400;81;21147;-71
2021/03/22 10:24:50;;;;;;;31.50;19.52;;;;;;;4.10;62.86;99132.00;1730198;81;21215;-71
2021/03/22 10:27:34;;;;;;;29.77;19.02;;;;;;;4.02;64.43;99133.09;1741698;81;22102;-70
2021/03/22 10:30:16;;;;;;;32.55;19.05;;;;;;;3.98;65.11;99134.48;1738160;81;21176;-72
2021/03/22 10:32:57;;;;;;;30.75;18.55;;;;;;;3.95;65.41;99132.39;1740010;79;21193;-69
2021/03/22 10:35:48;;;;;;;48.05;22.32;;;;;;;3.96;65.69;99137.56;1714730;82;21600;-68
2021/03/22 10:38:19;;;;;;;;;;;;;;;3.98;63.88;99137.54;1696761;82;22273;-68
2021/03/22 10:40:47;;;;;;;40.10;22.20;;;;;;;3.98;63.96;99140.99;1719231;81;21231;-64
2021/03/22 10:43:39;;;;;;;31.77;19.85;;;;;;;3.91;64.66;99139.87;1680331;84;21199;-67
2021/03/22 10:46:18;;;;;;;37.53;22.48;;;;;;;3.78;66.10;99141.95;1712185;82;21143;-67
2021/03/22 10:49:16;;;;;;;36.77;20.77;;;;;;;3.57;67.16;99144.64;1738671;80;21212;-74
2021/03/22 10:51:47;;;;;;;34.90;20.17;;;;;;;3.41;68.69;99144.14;1749136;80;21210;-74
2021/03/22 10:54:17;;;;;;;38.80;21.70;;;;;;;3.30;69.85;99135.73;1731650;81;22245;-73
2021/03/22 10:59:43;;;;;;;42.97;22.47;;;;;;;3.19;68.78;99137.27;1860295;75;22661;-73
2021/03/22 11:02:30;;;;;;;43.90;22.35;;;;;;;3.09;69.93;99130.58;1828592;77;21105;31
2021/03/22 11:04:59;;;;;;;38.28;23.60;;;;;;;3.12;69.64;99141.75;1707257;81;21572;-67
2021/03/22 11:07:27;;;;;;;31.40;19.75;;;;;;;3.19;70.66;99129.47;1699273;82;21164;-67
2021/03/22 11:10:03;;;;;;;36.55;22.75;;;;;;;3.19;70.66;99129.47;1731122;81;21200;-68
2021/03/22 11:12:33;;;;;;;30.82;17.90;;;;;;;3.29;70.22;99132.70;1738966;81;21210;-67
2021/03/22 11:15:09;;;;;;;30.15;18.77;;;;;;;3.37;69.92;99126.89;1742185;81;21166;-67
2021/03/22 11:17:41;;;;;;;37.78;22.98;;;;;;;3.39;69.55;99122.50;1706692;77;21889;-72
2021/03/22 11:20:11;;;;;;;36.15;20.80;;;;;;;3.44;68.30;99127.14;1742836;80;21727;-72
2021/03/22 11:22:41;;;;;;;29.75;19.07;;;;;;;3.48;68.26;99118.83;1670073;83;21193;-73
2021/03/22 11:25:34;;;;;;;33.10;20.52;;;;;;;3.50;67.87;99123.10;1699144;82;21634;-72
2021/03/22 11:28:14;;;;;;;31.62;20.57;;;;;;;3.56;67.95;99130.74;1684354;82;22364;-73
2021/03/22 11:31:07;;;;;;;32.30;20.10;;;;;;;3.63;67.70;99130.60;1694848;84;21401;-73
2021/03/22 11:33:39;;;;;;;30.75;20.37;;;;;;;3.64;66.98;99120.61;1696268;79;21227;-68
2021/03/22 11:36:20;;;;;;;28.27;18.37;;;;;;;3.64;66.85;99128.42;1732698;81;21198;-67
2021/03/22 11:38:53;;;;;;;30.77;18.67;;;;;;;3.64;65.62;99127.13;1711438;81;21178;-67
2021/03/22 11:41:31;;;;;;;28.85;18.00;;;;;;;3.62;66.06;99125.00;1747380;80;21163;-67
2021/03/22 11:44:31;;;;;;;34.67;20.72;;;;;;;3.61;65.21;99121.97;1743662;80;22123;-67
2021/03/22 11:47:34;;;;;;;31.60;19.20;;;;;;;3.58;65.28;99121.14;1748564;81;21182;-66
2021/03/22 11:50:25;;;;;;;32.45;18.98;;;;;;;3.53;66.13;99130.83;1712886;82;21141;-74
2021/03/22 11:53:14;;;;;;;32.93;19.33;;;;;;;3.48;64.79;99124.88;1826433;76;21873;-73
2021/03/22 11:55:50;;;;;;;25.90;16.07;;;;;;;3.41;65.17;99135.48;1797346;77;21175;-73
2021/03/22 11:58:40;;;;;;;30.72;15.98;;;;;;;3.39;65.49;99138.12;1749260;81;21719;-73
2021/03/22 12:01:25;;;;;;;28.60;19.00;;;;;;;3.35;65.78;99137.77;1745548;81;21659;-73
2021/03/22 12:04:10;;;;;;;43.68;25.00;;;;;;;3.35;65.17;99137.77;1757543;78;21220;-65
2021/03/22 12:07:00;;;;;;;36.15;20.95;;;;;;;3.29;65.63;99134.00;1736017;80;21186;-66
2021/03/22 12:09:30;;;;;;;30.08;17.67;;;;;;;3.33;65.17;99134.34;1719840;80;21178;-67
2021/03/22 12:12:03;;;;;;;27.95;16.73;;;;;;;3.39;65.42;99131.61;1728545;80;21397;-65
2021/03/22 12:14:32;;;;;;;32.30;17.90;;;;;;;3.51;65.61;99137.81;1696769;80;21206;-67
2021/03/22 12:17:04;;;;;;;29.05;17.00;;;;;;;3.51;65.61;99137.81;1746293;80;21214;-66
2021/03/22 12:19:38;;;;;;;30.25;18.37;;;;;;;3.64;65.94;99137.53;1781064;78;21242;-71